Terminal Aerodrome Forecast
Issued by NWS

Home | Current Version | Previous Version | Text Only | Print | Product List | Glossary Off
Versions: 1 2 3 4 5 6 7 8 9 10 11 12 13 14 15 16 17 18 19 20 21 22

872
FTUS43 KABR 231004 AAA
TAFPIR
TAF AMD
KPIR 231004Z 2310/2406 29014KT P6SM BKN250
     FM231300 31017G26KT P6SM SCT050
     FM240200 31007KT P6SM SKC=

USA.gov is the U.S. government's official web portal to all federal, state and local government web resources and services.